createdAt,value
2023-01-30T00:01:29.655Z,8.63
2023-01-30T00:03:56.782Z,9.57
2023-01-30T00:06:24.734Z,7.90
2023-01-30T00:08:51.783Z,7.85
2023-01-30T00:11:20.330Z,8.77
2023-01-30T00:13:50.577Z,8.88
2023-01-30T00:16:19.091Z,8.40
2023-01-30T00:18:46.085Z,8.48
2023-01-30T00:21:15.445Z,8.52
2023-01-30T00:23:42.855Z,9.40
2023-01-30T00:26:11.150Z,8.85
2023-01-30T00:28:39.590Z,9.55
2023-01-30T00:31:07.357Z,9.63
2023-01-30T00:33:36.429Z,10.95
2023-01-30T00:36:03.558Z,10.48
2023-01-30T00:38:30.700Z,9.70
2023-01-30T00:40:57.417Z,10.32
2023-01-30T00:43:43.003Z,9.48
2023-01-30T00:47:01.465Z,9.50
2023-01-30T00:49:28.373Z,9.65
2023-01-30T00:51:55.222Z,10.40
2023-01-30T00:54:21.970Z,10.02
2023-01-30T00:56:48.773Z,10.73
2023-01-30T00:59:15.533Z,10.25
2023-01-30T01:01:42.314Z,10.77
2023-01-30T01:04:10.563Z,11.50
2023-01-30T01:06:38.632Z,11.43
2023-01-30T01:09:05.917Z,11.23
2023-01-30T01:11:32.980Z,11.32
2023-01-30T01:14:02.338Z,11.38
2023-01-30T01:16:31.864Z,11.63
2023-01-30T01:18:59.556Z,11.40
2023-01-30T01:21:26.779Z,11.93
2023-01-30T01:23:57.585Z,11.23
2023-01-30T01:26:24.826Z,10.55
2023-01-30T01:28:58.798Z,10.57
2023-01-30T01:33:52.967Z,9.90
2023-01-30T01:36:49.662Z,11.77
2023-01-30T01:39:06.944Z,11.63
2023-01-30T01:41:33.836Z,12.52
2023-01-30T01:44:13.355Z,12.15
2023-01-30T01:46:53.388Z,11.18
2023-01-30T01:49:27.971Z,12.50
2023-01-30T01:52:05.162Z,12.88
2023-01-30T01:54:42.440Z,13.50
2023-01-30T01:57:20.788Z,11.95
2023-01-30T01:59:54.050Z,11.95
2023-01-30T02:02:21.569Z,11.93
2023-01-30T02:05:06.403Z,11.32
2023-01-30T02:07:51.691Z,13.50
2023-01-30T02:10:32.595Z,12.75
2023-01-30T02:12:59.379Z,13.07
2023-01-30T02:15:26.152Z,13.27
2023-01-30T02:17:52.948Z,13.88
2023-01-30T02:21:02.209Z,12.82
2023-01-30T02:24:06.824Z,13.13
2023-01-30T02:26:51.894Z,14.15
2023-01-30T02:30:02.130Z,12.77
2023-01-30T02:32:55.363Z,12.20
2023-01-30T02:35:55.731Z,13.27
2023-01-30T02:39:26.615Z,11.85
2023-01-30T02:42:21.720Z,13.63
2023-01-30T02:45:23.802Z,13.80
2023-01-30T02:48:14.991Z,12.98
2023-01-30T02:50:57.179Z,13.27
2023-01-30T02:53:24.228Z,13.70
2023-01-30T02:55:51.019Z,12.70
2023-01-30T02:58:24.421Z,13.18
2023-01-30T03:02:05.480Z,13.60
2023-01-30T03:05:04.398Z,12.60
2023-01-30T03:07:48.233Z,11.70
2023-01-30T03:10:45.060Z,12.70
2023-01-30T03:13:24.303Z,12.82
2023-01-30T03:16:00.064Z,11.63
2023-01-30T03:18:26.882Z,13.30
2023-01-30T03:20:54.147Z,12.38
2023-01-30T03:23:21.062Z,12.93
2023-01-30T03:25:49.076Z,13.98
2023-01-30T03:28:21.252Z,14.43
2023-01-30T03:30:48.155Z,13.30
2023-01-30T03:33:14.925Z,12.55
2023-01-30T03:35:43.257Z,12.95
2023-01-30T03:38:10.943Z,13.77
2023-01-30T03:40:37.988Z,13.43
2023-01-30T03:43:05.218Z,13.63
2023-01-30T03:45:32.026Z,13.95
2023-01-30T03:47:58.811Z,14.63
2023-01-30T03:50:25.707Z,13.32
2023-01-30T03:52:52.535Z,13.02
2023-01-30T03:55:19.807Z,12.93
2023-01-30T03:57:47.103Z,11.88
2023-01-30T04:00:14.980Z,12.15
2023-01-30T04:02:41.931Z,13.55
2023-01-30T04:05:08.841Z,10.95
2023-01-30T04:07:35.589Z,12.15
2023-01-30T04:10:02.336Z,12.80
2023-01-30T04:12:29.169Z,12.98
2023-01-30T04:14:56.098Z,13.32
2023-01-30T04:17:22.951Z,14.35
2023-01-30T04:19:49.924Z,11.23
2023-01-30T04:22:16.807Z,12.38
2023-01-30T04:24:43.563Z,12.18
2023-01-30T04:27:10.385Z,12.25
2023-01-30T04:29:37.119Z,12.85
2023-01-30T04:32:04.016Z,11.57
2023-01-30T04:34:31.011Z,11.70
2023-01-30T04:36:57.775Z,11.98
2023-01-30T04:39:24.513Z,11.90
2023-01-30T04:41:51.750Z,12.05
2023-01-30T04:44:18.634Z,12.30
2023-01-30T04:46:45.736Z,12.68
2023-01-30T04:49:12.984Z,12.43
2023-01-30T04:51:39.751Z,11.70
2023-01-30T04:54:06.710Z,13.07
2023-01-30T04:56:33.477Z,11.50
2023-01-30T04:59:00.320Z,11.45
2023-01-30T05:01:34.656Z,12.65
2023-01-30T05:04:02.527Z,11.48
2023-01-30T05:06:31.027Z,12.77
2023-01-30T05:08:58.531Z,12.70
2023-01-30T05:11:28.565Z,13.02
2023-01-30T05:13:56.056Z,13.23
2023-01-30T05:16:23.723Z,13.23
2023-01-30T05:18:51.235Z,12.38
2023-01-30T05:21:26.033Z,13.05
2023-01-30T05:23:53.696Z,12.48
2023-01-30T05:26:21.316Z,11.73
2023-01-30T05:28:57.000Z,12.60
2023-01-30T05:31:24.567Z,11.98
2023-01-30T05:33:52.547Z,12.48
2023-01-30T05:36:22.071Z,12.27
2023-01-30T05:38:48.844Z,11.52
2023-01-30T05:41:17.206Z,12.57
2023-01-30T05:43:44.717Z,10.98
2023-01-30T05:46:13.643Z,11.02
2023-01-30T05:48:40.587Z,11.20
2023-01-30T05:51:19.135Z,11.52
2023-01-30T05:53:46.613Z,12.73
2023-01-30T05:56:13.653Z,11.48
2023-01-30T05:58:40.826Z,11.68
2023-01-30T06:01:11.604Z,11.13
2023-01-30T06:03:39.322Z,11.38
2023-01-30T06:06:07.378Z,11.20
2023-01-30T06:08:34.309Z,11.50
2023-01-30T06:11:08.502Z,11.35
2023-01-30T06:13:35.976Z,11.90
2023-01-30T06:16:03.382Z,10.63
2023-01-30T06:18:30.245Z,12.63
2023-01-30T06:20:57.018Z,9.80
2023-01-30T06:23:23.996Z,12.63
2023-01-30T06:25:53.144Z,10.70
2023-01-30T06:28:20.604Z,12.07
2023-01-30T06:30:47.578Z,12.48
2023-01-30T06:33:14.907Z,11.35
2023-01-30T06:35:43.367Z,9.98
2023-01-30T06:38:11.536Z,10.23
2023-01-30T06:40:39.803Z,11.63
2023-01-30T06:43:07.368Z,10.52
2023-01-30T06:45:34.178Z,10.73
2023-01-30T06:48:00.957Z,11.70
2023-01-30T06:50:29.841Z,12.65
2023-01-30T06:52:57.714Z,11.98
2023-01-30T06:55:26.944Z,10.25
2023-01-30T06:58:09.719Z,10.20
2023-01-30T07:00:40.021Z,9.07
2023-01-30T07:03:15.637Z,12.07
2023-01-30T07:05:45.096Z,12.80
2023-01-30T07:08:12.529Z,10.82
2023-01-30T07:10:41.709Z,9.45
2023-01-30T07:13:08.519Z,10.38
2023-01-30T07:15:35.471Z,10.30
2023-01-30T07:18:02.606Z,9.68
2023-01-30T07:20:31.385Z,9.15
2023-01-30T07:22:58.741Z,9.25
2023-01-30T07:25:28.671Z,7.97
2023-01-30T07:28:01.525Z,8.85
2023-01-30T07:30:32.839Z,7.70
2023-01-30T07:33:00.537Z,8.80
2023-01-30T07:35:31.381Z,7.93
2023-01-30T07:37:58.842Z,6.85
2023-01-30T07:40:26.687Z,7.97
2023-01-30T07:43:07.423Z,8.85
2023-01-30T07:45:47.297Z,6.68
2023-01-30T07:48:17.896Z,6.72
2023-01-30T07:50:46.048Z,7.75
2023-01-30T07:53:16.517Z,6.45
2023-01-30T07:55:43.847Z,6.75
2023-01-30T07:58:17.526Z,5.63
2023-01-30T08:00:44.993Z,4.95
2023-01-30T08:03:14.609Z,5.35
2023-01-30T08:05:41.480Z,4.63
2023-01-30T08:08:08.274Z,5.05
2023-01-30T08:10:35.219Z,6.68
2023-01-30T08:13:02.020Z,4.55
2023-01-30T08:15:31.565Z,5.38
2023-01-30T08:17:58.904Z,4.18
2023-01-30T08:20:27.716Z,5.50
2023-01-30T08:22:54.800Z,4.93
2023-01-30T08:25:22.183Z,3.92
2023-01-30T08:27:49.085Z,4.15
2023-01-30T08:30:16.625Z,4.35
2023-01-30T08:32:44.028Z,3.90
2023-01-30T08:35:11.252Z,4.22
2023-01-30T08:37:40.738Z,3.97
2023-01-30T08:40:09.469Z,4.45
2023-01-30T08:42:36.386Z,3.95
2023-01-30T08:45:03.753Z,3.50
2023-01-30T08:47:31.713Z,3.88
2023-01-30T08:49:58.661Z,3.58
2023-01-30T08:52:25.640Z,3.28
2023-01-30T08:54:52.994Z,3.95
2023-01-30T08:57:20.267Z,3.33
2023-01-30T08:59:47.621Z,4.22
2023-01-30T09:02:14.354Z,3.90
2023-01-30T09:04:41.117Z,5.53
2023-01-30T09:07:08.004Z,3.60
2023-01-30T09:09:35.011Z,4.68
2023-01-30T09:12:01.726Z,4.25
2023-01-30T09:14:28.530Z,2.97
2023-01-30T09:16:57.895Z,4.10
2023-01-30T09:19:28.771Z,3.03
2023-01-30T09:21:56.348Z,2.67
2023-01-30T09:24:26.552Z,2.97
2023-01-30T09:26:54.992Z,2.80
2023-01-30T09:29:22.749Z,3.70
2023-01-30T09:31:49.847Z,2.83
2023-01-30T09:34:16.596Z,3.97
2023-01-30T09:36:44.214Z,2.90
2023-01-30T09:39:11.014Z,3.25
2023-01-30T09:42:06.139Z,3.65
2023-01-30T09:45:17.925Z,2.47
2023-01-30T09:48:21.869Z,3.40
2023-01-30T09:51:44.332Z,2.80
2023-01-30T09:54:22.205Z,2.85
2023-01-30T09:57:21.748Z,4.88
2023-01-30T10:00:11.180Z,4.07
2023-01-30T10:03:10.495Z,4.93
2023-01-30T10:06:05.205Z,4.35
2023-01-30T10:08:40.755Z,3.42
2023-01-30T10:11:50.861Z,5.05
2023-01-30T10:14:50.862Z,3.35
2023-01-30T10:18:05.354Z,4.10
2023-01-30T10:20:41.192Z,2.45
2023-01-30T10:23:33.296Z,7.25
2023-01-30T10:26:26.318Z,7.35
2023-01-30T10:29:08.788Z,4.90
2023-01-30T10:31:55.980Z,4.13
2023-01-30T10:34:33.741Z,5.32
2023-01-30T10:37:10.320Z,6.32
2023-01-30T10:39:57.704Z,4.80
2023-01-30T10:42:39.181Z,6.50
2023-01-30T10:45:21.167Z,6.80
2023-01-30T10:49:04.039Z,6.38
2023-01-30T10:51:59.890Z,6.97
2023-01-30T10:54:42.889Z,6.03
2023-01-30T10:57:44.172Z,6.93
2023-01-30T11:00:40.017Z,7.78
2023-01-30T11:03:22.045Z,7.60
2023-01-30T11:05:56.725Z,5.43
2023-01-30T11:08:33.544Z,7.65
2023-01-30T11:11:01.336Z,10.43
2023-01-30T11:13:33.538Z,8.18
2023-01-30T11:16:07.782Z,7.07
2023-01-30T11:21:43.582Z,6.45
2023-01-30T11:24:17.528Z,8.25
2023-01-30T11:26:48.003Z,6.72
2023-01-30T11:29:32.705Z,7.40
2023-01-30T11:34:44.128Z,8.18
2023-01-30T11:37:27.309Z,6.70
2023-01-30T11:39:54.166Z,7.13
2023-01-30T11:42:31.648Z,7.95
2023-01-30T11:45:16.210Z,8.73
2023-01-30T11:48:07.872Z,7.47
2023-01-30T11:50:45.810Z,8.55
2023-01-30T11:53:39.507Z,8.75
2023-01-30T11:56:20.588Z,6.18
2023-01-30T11:59:00.906Z,9.70
2023-01-30T12:01:31.864Z,7.15
2023-01-30T12:04:00.216Z,7.55
2023-01-30T12:06:35.246Z,6.43
2023-01-30T12:09:03.491Z,6.10
2023-01-30T12:11:42.285Z,6.00
2023-01-30T12:14:26.983Z,5.28
2023-01-30T12:17:21.653Z,8.95
2023-01-30T12:20:33.707Z,4.63
2023-01-30T12:23:33.878Z,4.53
2023-01-30T12:26:27.783Z,6.45
2023-01-30T12:29:19.170Z,7.47
2023-01-30T12:32:15.848Z,6.13
2023-01-30T12:34:47.923Z,5.55
2023-01-30T12:37:30.671Z,6.07
2023-01-30T12:40:47.078Z,6.75
2023-01-30T12:43:28.746Z,7.18
2023-01-30T12:46:38.657Z,5.38
2023-01-30T12:49:45.352Z,9.75
2023-01-30T12:53:02.376Z,9.27
2023-01-30T12:56:26.147Z,7.60
2023-01-30T12:59:17.661Z,6.25
2023-01-30T13:02:21.940Z,8.02
2023-01-30T13:05:22.523Z,6.57
2023-01-30T13:08:18.669Z,8.77
2023-01-30T13:11:22.532Z,7.60
2023-01-30T13:14:21.925Z,7.35
2023-01-30T13:17:18.217Z,6.95
2023-01-30T13:20:04.715Z,6.93
2023-01-30T13:22:57.844Z,4.90
2023-01-30T13:25:40.572Z,5.93
2023-01-30T13:28:16.290Z,5.95
2023-01-30T13:30:45.879Z,7.80
2023-01-30T13:33:24.326Z,7.65
2023-01-30T13:36:06.797Z,5.20
2023-01-30T13:38:41.525Z,7.97
2023-01-30T13:41:13.466Z,6.80
2023-01-30T13:43:51.568Z,7.20
2023-01-30T13:46:26.664Z,6.15
2023-01-30T13:49:39.468Z,6.38
2023-01-30T13:52:33.621Z,9.27
2023-01-30T13:55:13.411Z,9.10
2023-01-30T13:57:50.464Z,10.13
2023-01-30T14:00:20.565Z,6.43
2023-01-30T14:03:06.483Z,6.78
2023-01-30T14:06:05.892Z,4.85
2023-01-30T14:08:46.323Z,5.20
2023-01-30T14:12:00.622Z,5.88
2023-01-30T14:14:40.658Z,4.60
2023-01-30T14:17:14.316Z,6.05
2023-01-30T14:19:45.879Z,4.88
2023-01-30T14:22:35.906Z,5.47
2023-01-30T14:25:30.429Z,4.47
2023-01-30T14:30:44.927Z,3.53
2023-01-30T14:33:51.548Z,4.93
2023-01-30T14:36:21.047Z,4.65
2023-01-30T14:39:17.832Z,4.95
2023-01-30T14:41:44.622Z,3.75
2023-01-30T14:44:11.380Z,2.17
2023-01-30T14:46:54.827Z,3.60
2023-01-30T14:49:28.761Z,3.97
2023-01-30T14:51:56.405Z,2.88
2023-01-30T14:54:41.033Z,2.30
2023-01-30T14:57:23.293Z,4.05
2023-01-30T15:00:16.457Z,2.00
2023-01-30T15:02:55.901Z,3.97
2023-01-30T15:05:27.492Z,3.72
2023-01-30T15:08:02.486Z,1.77
2023-01-30T15:11:04.531Z,2.53
2023-01-30T15:13:57.348Z,2.47
2023-01-30T15:17:14.337Z,1.90
2023-01-30T15:20:07.263Z,5.95
2023-01-30T15:23:11.953Z,1.63
2023-01-30T15:26:08.090Z,5.85
2023-01-30T15:29:24.029Z,6.40
2023-01-30T15:32:14.093Z,3.67
2023-01-30T15:34:52.928Z,4.88
2023-01-30T15:37:46.835Z,3.88
2023-01-30T15:40:16.918Z,2.72
2023-01-30T15:43:21.243Z,3.42
2023-01-30T15:46:21.816Z,3.95
2023-01-30T15:49:06.741Z,3.35
2023-01-30T15:51:34.891Z,4.55
2023-01-30T15:54:10.648Z,4.35
2023-01-30T15:56:40.160Z,4.70
2023-01-30T15:59:08.635Z,5.22
2023-01-30T16:01:35.617Z,3.88
2023-01-30T16:04:07.203Z,5.35
2023-01-30T16:06:36.838Z,3.78
2023-01-30T16:09:19.848Z,4.82
2023-01-30T16:11:46.154Z,3.67
2023-01-30T16:14:15.518Z,3.70
2023-01-30T16:16:55.434Z,4.28
2023-01-30T16:19:32.490Z,5.72
2023-01-30T16:22:18.704Z,3.28
2023-01-30T16:24:53.117Z,5.15
2023-01-30T16:27:40.002Z,7.68
2023-01-30T16:30:08.935Z,5.80
2023-01-30T16:32:36.865Z,7.63
2023-01-30T16:35:28.520Z,5.90
2023-01-30T16:37:57.806Z,7.07
2023-01-30T16:40:44.376Z,5.00
2023-01-30T16:43:29.519Z,6.00
2023-01-30T16:46:52.212Z,6.63
2023-01-30T16:49:35.684Z,7.13
2023-01-30T16:52:33.893Z,7.15
2023-01-30T16:55:07.435Z,8.02
2023-01-30T16:57:42.803Z,6.70
2023-01-30T17:00:27.922Z,6.25
2023-01-30T17:02:58.759Z,9.23
2023-01-30T17:05:36.713Z,6.88
2023-01-30T17:08:04.266Z,9.02
2023-01-30T17:10:40.225Z,5.75
2023-01-30T17:13:41.769Z,8.25
2023-01-30T17:16:34.993Z,10.52
2023-01-30T17:19:02.246Z,6.20
2023-01-30T17:21:49.221Z,7.00
2023-01-30T17:24:22.766Z,7.35
2023-01-30T17:26:54.457Z,6.95
2023-01-30T17:29:41.460Z,5.85
2023-01-30T17:32:13.360Z,6.40
2023-01-30T17:34:41.315Z,5.80
2023-01-30T17:37:21.293Z,5.15
2023-01-30T17:39:49.211Z,6.25
2023-01-30T17:42:22.158Z,7.45
2023-01-30T17:44:49.510Z,6.90
2023-01-30T17:47:16.292Z,7.97
2023-01-30T17:49:43.445Z,7.70
2023-01-30T17:52:13.642Z,8.50
2023-01-30T17:54:40.489Z,7.60
2023-01-30T17:57:10.543Z,6.72
2023-01-30T17:59:37.290Z,9.05
2023-01-30T18:02:05.297Z,8.15
2023-01-30T18:04:32.068Z,7.57
2023-01-30T18:07:06.408Z,9.23
2023-01-30T18:09:33.335Z,7.47
2023-01-30T18:12:00.182Z,11.48
2023-01-30T18:14:27.330Z,8.30
2023-01-30T18:16:59.997Z,12.07
2023-01-30T18:19:29.040Z,11.15
2023-01-30T18:21:58.471Z,10.55
2023-01-30T18:24:25.653Z,10.35
2023-01-30T18:26:52.784Z,7.78
2023-01-30T18:29:19.604Z,11.45
2023-01-30T18:31:46.678Z,10.02
2023-01-30T18:34:13.544Z,12.63
2023-01-30T18:36:40.398Z,14.88
2023-01-30T18:39:07.320Z,12.25
2023-01-30T18:41:35.348Z,13.00
2023-01-30T18:44:05.579Z,14.52
2023-01-30T18:46:33.553Z,11.35
2023-01-30T18:49:00.538Z,12.07
2023-01-30T18:51:34.122Z,9.98
2023-01-30T18:54:01.500Z,6.85
2023-01-30T18:56:31.871Z,14.23
2023-01-30T18:59:03.235Z,12.48
2023-01-30T19:01:38.891Z,12.85
2023-01-30T19:04:08.990Z,9.98
2023-01-30T19:06:42.595Z,12.20
2023-01-30T19:09:14.565Z,11.60
2023-01-30T19:11:59.804Z,15.02
2023-01-30T19:14:26.730Z,9.60
2023-01-30T19:16:54.541Z,11.38
2023-01-30T19:19:21.533Z,12.57
2023-01-30T19:21:49.764Z,9.63
2023-01-30T19:24:17.825Z,13.68
2023-01-30T19:26:44.941Z,17.70
2023-01-30T19:29:11.805Z,14.88
2023-01-30T19:31:39.015Z,12.05
2023-01-30T19:34:06.391Z,10.77
2023-01-30T19:36:34.884Z,10.55
2023-01-30T19:39:04.274Z,9.50
2023-01-30T19:41:34.868Z,8.90
2023-01-30T19:44:05.404Z,11.88
2023-01-30T19:46:32.776Z,13.38
2023-01-30T19:48:59.653Z,12.98
2023-01-30T19:51:29.925Z,11.65
2023-01-30T19:54:04.875Z,12.95
2023-01-30T19:56:34.060Z,14.90
2023-01-30T19:59:02.262Z,12.13
2023-01-30T20:01:32.964Z,11.40
2023-01-30T20:04:01.771Z,14.52
2023-01-30T20:06:32.460Z,12.25
2023-01-30T20:09:11.213Z,14.93
2023-01-30T20:11:40.861Z,10.57
2023-01-30T20:14:10.587Z,11.20
2023-01-30T20:16:37.781Z,9.55
2023-01-30T20:19:17.244Z,11.40
2023-01-30T20:21:45.502Z,13.65
2023-01-30T20:24:14.979Z,12.38
2023-01-30T20:26:42.895Z,12.57
2023-01-30T20:29:10.796Z,14.88
2023-01-30T20:31:39.151Z,14.57
2023-01-30T20:34:10.707Z,18.20
2023-01-30T20:36:37.683Z,11.65
2023-01-30T20:39:06.498Z,10.93
2023-01-30T20:41:35.663Z,12.05
2023-01-30T20:44:04.927Z,14.90
2023-01-30T20:46:40.992Z,14.55
2023-01-30T20:49:17.416Z,15.55
2023-01-30T20:51:45.831Z,8.32
2023-01-30T20:54:15.378Z,9.52
2023-01-30T20:56:45.637Z,12.95
2023-01-30T20:59:27.183Z,16.42
2023-01-30T21:01:54.434Z,12.50
2023-01-30T21:04:24.250Z,11.05
2023-01-30T21:06:51.275Z,10.88
2023-01-30T21:09:23.912Z,12.88
2023-01-30T21:11:53.100Z,10.32
2023-01-30T21:14:20.013Z,12.25
2023-01-30T21:16:47.873Z,10.15
2023-01-30T21:19:17.370Z,9.40
2023-01-30T21:21:50.268Z,10.93
2023-01-30T21:24:28.265Z,7.90
2023-01-30T21:26:56.573Z,8.57
2023-01-30T21:29:26.772Z,9.95
2023-01-30T21:31:55.530Z,9.70
2023-01-30T21:34:23.209Z,13.02
2023-01-30T21:37:08.526Z,6.53
2023-01-30T21:39:53.799Z,7.88
2023-01-30T21:42:39.220Z,7.78
2023-01-30T21:45:06.936Z,6.95
2023-01-30T21:47:33.757Z,8.00
2023-01-30T21:50:00.531Z,9.38
2023-01-30T21:52:27.285Z,7.82
2023-01-30T21:54:54.031Z,5.82
2023-01-30T21:57:20.839Z,8.70
2023-01-30T21:59:47.578Z,9.00
2023-01-30T22:02:14.348Z,11.10
2023-01-30T22:04:41.379Z,10.13
2023-01-30T22:07:08.206Z,5.75
2023-01-30T22:09:34.948Z,6.70
2023-01-30T22:12:01.818Z,6.10
2023-01-30T22:14:28.876Z,9.18
2023-01-30T22:16:55.650Z,8.85
2023-01-30T22:19:22.409Z,8.05
2023-01-30T22:21:49.204Z,6.90
2023-01-30T22:24:16.207Z,10.00
2023-01-30T22:26:43.602Z,10.32
2023-01-30T22:29:10.562Z,10.32
2023-01-30T22:31:40.554Z,8.60
2023-01-30T22:34:07.826Z,7.80
2023-01-30T22:36:35.296Z,8.75
2023-01-30T22:39:03.682Z,7.13
2023-01-30T22:41:36.268Z,11.25
2023-01-30T22:44:05.199Z,7.47
2023-01-30T22:46:36.279Z,7.68
2023-01-30T22:49:06.185Z,9.02
2023-01-30T22:51:43.473Z,9.43
2023-01-30T22:54:17.927Z,10.88
2023-01-30T22:56:48.612Z,11.55
2023-01-30T22:59:15.617Z,7.38
2023-01-30T23:01:45.950Z,9.82
2023-01-30T23:04:16.522Z,12.27
2023-01-30T23:06:44.554Z,10.00
2023-01-30T23:09:17.653Z,8.25
2023-01-30T23:12:12.913Z,13.03
2023-01-30T23:14:40.554Z,10.45
2023-01-30T23:17:26.737Z,7.65
2023-01-30T23:19:54.695Z,8.93
2023-01-30T23:22:21.853Z,8.25
2023-01-30T23:24:48.825Z,9.18
2023-01-30T23:27:15.856Z,11.88
2023-01-30T23:29:43.168Z,10.35
2023-01-30T23:32:10.162Z,12.13
2023-01-30T23:34:36.996Z,11.27
2023-01-30T23:37:03.905Z,12.40
2023-01-30T23:39:30.682Z,9.05
2023-01-30T23:41:57.615Z,9.23
2023-01-30T23:44:24.376Z,11.45
2023-01-30T23:46:51.143Z,12.02
2023-01-30T23:49:18.122Z,9.15
2023-01-30T23:51:45.905Z,8.70
2023-01-30T23:54:14.137Z,8.68
2023-01-30T23:56:44.781Z,6.65
2023-01-30T23:59:12.586Z,7.60
